Time;durP1;ratioP1;P1;durP2;ratioP2;P2;SDS_P1;SDS_P2;PMS_P1;PMS_P2;Temp;Humidity;BMP_temperature;BMP_pressure;BME280_temperature;BME280_humidity;BME280_pressure;Samples;Min_cycle;Max_cycle;Signal;HPM_P1;HPM_P2
2021/11/05 00:01:53;;;;;;;13.15;3.40;;;;;;;6.62;69.96;98386.72;2210251;81;21455;-65
2021/11/05 00:04:55;;;;;;;12.90;3.35;;;;;;;6.59;69.87;98385.97;2210102;81;21020;-65
2021/11/05 00:07:56;;;;;;;15.08;3.60;;;;;;;6.57;69.95;98397.39;2210308;80;20964;-65
2021/11/05 00:10:58;;;;;;;13.72;3.65;;;;;;;6.53;70.02;98390.17;2210018;81;20981;-65
2021/11/05 00:13:59;;;;;;;13.25;3.30;;;;;;;6.51;70.09;98392.03;2210276;81;21000;-64
2021/11/05 00:17:01;;;;;;;16.23;3.90;;;;;;;6.49;70.11;98396.93;2210273;81;21038;-65
2021/11/05 00:20:02;;;;;;;15.03;3.55;;;;;;;6.46;70.11;98391.41;2210402;81;20984;-65
2021/11/05 00:23:03;;;;;;;14.98;3.50;;;;;;;6.42;70.18;98400.30;2210153;81;21064;-65
2021/11/05 00:26:05;;;;;;;12.82;3.50;;;;;;;6.37;70.32;98413.56;2210427;81;20949;-65
2021/11/05 00:29:06;;;;;;;13.50;3.50;;;;;;;6.30;70.49;98417.39;2210555;80;21005;-64
2021/11/05 00:32:08;;;;;;;13.93;3.90;;;;;;;6.29;70.53;98421.38;2210268;81;21047;-65
2021/11/05 00:35:10;;;;;;;16.02;3.85;;;;;;;6.28;70.48;98425.76;2210093;81;21101;-66
2021/11/05 00:38:11;;;;;;;12.13;3.52;;;;;;;6.26;70.61;98420.23;2210309;80;21546;-65
2021/11/05 00:41:13;;;;;;;13.45;3.72;;;;;;;6.24;70.68;98426.35;2210365;81;20972;-65
2021/11/05 00:44:15;;;;;;;14.03;3.80;;;;;;;6.21;70.73;98425.20;2210543;81;21479;-65
2021/11/05 00:47:16;;;;;;;13.03;3.37;;;;;;;6.19;70.78;98420.98;2210368;81;20984;-65
2021/11/05 00:50:18;;;;;;;12.97;3.43;;;;;;;6.18;70.77;98419.33;2210187;80;21056;-65
2021/11/05 00:53:19;;;;;;;13.55;3.75;;;;;;;6.16;70.72;98432.42;2210423;80;20946;-65
2021/11/05 00:56:20;;;;;;;11.18;3.15;;;;;;;6.13;70.78;98435.16;2210294;81;20984;-65
2021/11/05 00:59:22;;;;;;;15.25;3.65;;;;;;;6.01;71.00;98405.83;2210352;81;20976;-65
2021/11/05 01:02:23;;;;;;;16.62;3.77;;;;;;;6.10;70.95;98414.95;2210194;81;21012;-65
2021/11/05 01:05:25;;;;;;;13.70;3.90;;;;;;;6.10;71.16;98419.69;2209894;81;21475;-65
2021/11/05 01:08:27;;;;;;;17.67;3.95;;;;;;;6.11;71.09;98417.47;2210471;81;20984;-65
2021/11/05 01:11:28;;;;;;;12.78;3.58;;;;;;;6.11;70.98;98425.76;2210321;80;21500;-65
2021/11/05 01:14:30;;;;;;;13.50;3.55;;;;;;;6.08;71.19;98443.66;2210602;81;21011;-65
2021/11/05 01:17:31;;;;;;;14.23;3.80;;;;;;;6.06;71.18;98450.25;2210272;80;21535;-65
2021/11/05 01:20:33;;;;;;;14.78;4.33;;;;;;;6.09;71.14;98448.41;2210435;81;20972;-65
2021/11/05 01:23:34;;;;;;;12.98;3.75;;;;;;;6.07;71.22;98454.98;2210220;81;21016;-65
2021/11/05 01:26:36;;;;;;;12.18;3.47;;;;;;;6.06;71.29;98458.06;2210363;80;20975;-65
2021/11/05 01:29:37;;;;;;;11.28;3.62;;;;;;;6.04;71.22;98459.88;2210193;81;21051;-65
2021/11/05 01:32:38;;;;;;;12.58;3.72;;;;;;;6.03;71.31;98461.26;2210212;80;21535;-65
2021/11/05 01:35:42;;;;;;;12.47;3.70;;;;;;;6.00;71.38;98465.32;2210017;81;21091;-65
2021/11/05 01:38:43;;;;;;;12.40;3.90;;;;;;;5.98;71.46;98469.30;2210340;81;21004;-65
2021/11/05 01:41:45;;;;;;;12.98;3.72;;;;;;;5.98;71.37;98471.07;2210193;81;21008;-65
2021/11/05 01:44:46;;;;;;;12.58;3.67;;;;;;;5.96;71.55;98472.41;2210231;81;21591;-66
2021/11/05 01:47:47;;;;;;;9.98;3.22;;;;;;;5.96;71.59;98476.76;2210187;81;21040;-65
2021/11/05 01:50:49;;;;;;;12.05;3.50;;;;;;;5.95;71.57;98486.34;2219969;80;21521;-65
2021/11/05 01:53:50;;;;;;;12.05;3.33;;;;;;;5.93;71.54;98480.81;2220701;80;20984;-65
2021/11/05 01:56:52;;;;;;;10.78;3.20;;;;;;;5.90;71.71;98481.80;2220496;80;21071;-65
2021/11/05 01:59:53;;;;;;;11.30;3.40;;;;;;;5.88;71.59;98480.57;2220596;80;21016;-65
2021/11/05 02:02:55;;;;;;;13.53;3.58;;;;;;;5.86;71.70;98483.72;2220453;80;21032;-65
2021/11/05 02:05:56;;;;;;;13.87;3.50;;;;;;;5.83;71.78;98490.81;2220990;80;21040;-65
2021/11/05 02:08:58;;;;;;;14.00;3.90;;;;;;;5.82;71.87;98483.91;2220431;80;21750;-65
2021/11/05 02:11:59;;;;;;;10.15;3.25;;;;;;;5.85;71.85;98484.63;2220401;80;21531;-65
2021/11/05 02:15:01;;;;;;;11.10;3.42;;;;;;;5.84;71.92;98488.60;2220080;80;21053;-65
2021/11/05 02:18:04;;;;;;;14.30;4.00;;;;;;;5.84;71.87;98491.20;2220710;80;21535;-65
2021/11/05 02:21:06;;;;;;;13.20;3.75;;;;;;;5.83;71.86;98496.88;2190267;80;21666;-65
2021/11/05 02:24:07;;;;;;;11.18;3.45;;;;;;;5.82;71.88;98499.53;2220561;80;21052;-65
2021/11/05 02:27:08;;;;;;;13.10;3.70;;;;;;;5.79;71.82;98493.16;2220730;80;21080;-65
2021/11/05 02:30:10;;;;;;;13.15;3.40;;;;;;;5.76;72.20;98498.08;2220477;80;21079;-65
2021/11/05 02:33:12;;;;;;;12.33;3.75;;;;;;;5.74;72.17;98497.30;2220942;80;21032;-65
2021/11/05 02:36:13;;;;;;;13.32;3.85;;;;;;;5.72;72.21;98505.17;2220581;80;21036;-65
2021/11/05 02:39:15;;;;;;;11.10;3.33;;;;;;;5.72;72.17;98503.04;2220564;80;21559;-65
2021/11/05 02:42:16;;;;;;;10.50;3.50;;;;;;;5.71;72.06;98505.25;2220149;80;21071;-65
2021/11/05 02:45:18;;;;;;;10.98;3.58;;;;;;;5.67;72.39;98511.50;2220553;80;21539;-65
2021/11/05 02:48:19;;;;;;;14.10;3.85;;;;;;;5.69;72.46;98512.30;2219883;80;21040;-65
2021/11/05 02:51:21;;;;;;;14.30;4.15;;;;;;;5.67;72.38;98513.64;2210290;81;21039;-65
2021/11/05 02:54:22;;;;;;;13.60;4.13;;;;;;;5.65;72.35;98511.58;2210570;81;21007;-65
2021/11/05 02:57:24;;;;;;;16.00;3.87;;;;;;;5.62;72.71;98520.83;2210192;80;20980;-65
2021/11/05 03:00:25;;;;;;;14.63;4.10;;;;;;;5.57;72.53;98521.95;2210248;81;20976;-65
2021/11/05 03:03:26;;;;;;;14.75;3.90;;;;;;;5.52;72.63;98524.30;2210181;80;21041;-65
2021/11/05 03:06:28;;;;;;;12.53;4.00;;;;;;;5.51;72.91;98527.80;2210264;81;20949;-65
2021/11/05 03:09:29;;;;;;;14.20;4.20;;;;;;;5.51;72.81;98536.08;2209952;80;21269;-65
2021/11/05 03:12:31;;;;;;;13.50;4.17;;;;;;;5.48;72.94;98540.13;2210095;81;21546;-65
2021/11/05 03:15:32;;;;;;;17.48;4.67;;;;;;;5.48;73.06;98546.63;2210267;80;21060;-65
2021/11/05 03:18:38;;;;;;;15.77;4.70;;;;;;;5.50;72.73;98551.29;2210561;81;21003;-65
2021/11/05 03:21:37;;;;;;;16.80;4.45;;;;;;;5.50;72.82;98561.26;2188682;81;21538;-65
2021/11/05 03:24:39;;;;;;;13.43;4.00;;;;;;;5.46;72.85;98558.84;2210565;81;21004;-65
2021/11/05 03:27:40;;;;;;;14.80;4.53;;;;;;;5.44;72.85;98561.51;2210356;80;22279;-65
2021/11/05 03:30:42;;;;;;;16.35;4.80;;;;;;;5.44;72.88;98561.51;2210481;81;21004;-65
2021/11/05 03:33:43;;;;;;;15.05;4.55;;;;;;;5.45;72.86;98575.37;2210231;81;20964;-65
2021/11/05 03:36:45;;;;;;;19.77;5.50;;;;;;;5.42;72.84;98570.31;2210586;81;20957;-65
2021/11/05 03:39:46;;;;;;;16.65;4.87;;;;;;;5.43;72.99;98585.86;2210335;81;20996;-65
2021/11/05 03:42:48;;;;;;;15.65;4.55;;;;;;;5.42;72.94;98583.33;2210282;81;21495;-65
2021/11/05 03:45:50;;;;;;;16.80;4.97;;;;;;;5.39;73.01;98593.40;2210514;80;20981;-65
2021/11/05 03:48:51;;;;;;;15.38;4.67;;;;;;;5.38;73.06;98598.20;2211760;80;21530;-65
2021/11/05 03:51:53;;;;;;;16.52;4.80;;;;;;;5.37;73.07;98601.70;2220542;80;20976;-65
2021/11/05 03:54:54;;;;;;;17.60;5.28;;;;;;;5.37;73.07;98608.20;2220590;80;21532;-65
2021/11/05 03:57:56;;;;;;;16.17;4.90;;;;;;;5.35;73.16;98618.68;2220674;80;21048;-65
2021/11/05 04:00:57;;;;;;;16.30;4.90;;;;;;;5.35;73.09;98613.95;2220456;80;21063;-65
2021/11/05 04:03:58;;;;;;;16.20;4.83;;;;;;;5.32;73.13;98615.38;2220717;80;21028;-65
2021/11/05 04:07:00;;;;;;;16.23;4.80;;;;;;;5.29;73.34;98617.66;2220585;80;21048;-65
2021/11/05 04:10:01;;;;;;;16.37;4.80;;;;;;;5.26;73.43;98619.09;2220425;80;21607;-65
2021/11/05 04:13:03;;;;;;;14.65;4.37;;;;;;;5.24;73.62;98622.66;2220235;80;21044;-65
2021/11/05 04:16:05;;;;;;;13.75;4.37;;;;;;;5.23;73.78;98624.42;2220699;80;21571;-65
2021/11/05 04:19:06;;;;;;;17.75;4.47;;;;;;;5.20;73.63;98633.20;2220574;80;21048;-65
2021/11/05 04:22:08;;;;;;;17.95;5.00;;;;;;;5.16;73.85;98632.09;2221103;80;21412;-65
2021/11/05 04:25:09;;;;;;;18.98;5.60;;;;;;;5.18;73.87;98645.86;2220725;80;21032;-65
2021/11/05 04:28:11;;;;;;;17.30;4.90;;;;;;;5.17;73.75;98647.62;2220428;80;21566;-65
2021/11/05 04:31:13;;;;;;;17.10;4.75;;;;;;;5.15;73.69;98655.93;2220644;80;21020;-65
2021/11/05 04:34:14;;;;;;;17.02;5.28;;;;;;;5.14;73.97;98656.86;2220687;80;21539;-65
2021/11/05 04:37:16;;;;;;;18.00;5.30;;;;;;;5.13;73.90;98666.00;2220893;80;21036;-65
2021/11/05 04:40:17;;;;;;;17.85;5.50;;;;;;;5.13;73.89;98673.36;2220481;80;21044;-65
2021/11/05 04:43:19;;;;;;;16.90;5.37;;;;;;;5.15;73.97;98674.59;2220718;80;21051;-65
2021/11/05 04:46:20;;;;;;;20.12;6.17;;;;;;;5.14;73.92;98676.80;2220580;80;21363;-65
2021/11/05 04:49:23;;;;;;;19.20;5.97;;;;;;;5.11;73.90;98677.77;2218107;80;21065;-65
2021/11/05 04:52:24;;;;;;;19.80;5.65;;;;;;;5.13;73.98;98682.89;2210230;81;21044;-65
2021/11/05 04:55:26;;;;;;;18.27;5.50;;;;;;;5.13;73.78;98688.97;2210277;81;21051;-65
2021/11/05 04:58:27;;;;;;;20.40;5.70;;;;;;;5.14;73.80;98691.09;2210236;81;20985;-65
2021/11/05 05:01:29;;;;;;;21.60;6.03;;;;;;;5.14;73.81;98698.46;2210386;80;21491;-65
2021/11/05 05:04:30;;;;;;;22.30;5.92;;;;;;;5.13;73.77;98700.66;2210218;81;20961;-65
2021/11/05 05:07:31;;;;;;;20.17;5.85;;;;;;;5.12;73.81;98701.56;2210269;80;21583;-65
2021/11/05 05:10:33;;;;;;;18.37;4.97;;;;;;;5.10;73.96;98698.63;2209858;81;21036;-65
2021/11/05 05:13:35;;;;;;;20.45;5.35;;;;;;;5.05;73.95;98697.52;2210226;80;21116;-65
2021/11/05 05:16:36;;;;;;;21.02;5.37;;;;;;;5.02;74.01;98700.25;2210519;81;20956;-65
2021/11/05 05:19:38;;;;;;;19.65;5.40;;;;;;;4.99;74.12;98708.17;2210242;81;21016;-65
2021/11/05 05:22:39;;;;;;;18.45;5.33;;;;;;;4.98;74.01;98715.11;2210243;80;21044;-64
2021/11/05 05:25:41;;;;;;;20.08;5.87;;;;;;;4.96;73.95;98718.70;2210276;81;21063;-65
2021/11/05 05:28:42;;;;;;;19.37;5.80;;;;;;;4.91;74.01;98714.13;2210207;80;21616;-65
2021/11/05 05:31:44;;;;;;;19.20;6.03;;;;;;;4.88;74.38;98707.75;2210162;81;21032;-64
2021/11/05 05:34:45;;;;;;;22.20;7.30;;;;;;;4.89;74.44;98716.78;2210180;81;21500;-64
2021/11/05 05:37:47;;;;;;;26.37;9.05;;;;;;;4.89;74.29;98718.55;2210371;81;20964;-65
2021/11/05 05:40:48;;;;;;;26.85;10.58;;;;;;;4.85;74.35;98725.61;2209983;81;21515;-65
2021/11/05 05:43:50;;;;;;;20.48;6.67;;;;;;;4.85;74.35;98725.61;2210330;81;20937;-65
2021/11/05 05:46:51;;;;;;;21.37;6.72;;;;;;;4.81;74.42;98737.89;2210130;81;20999;-65
2021/11/05 05:49:53;;;;;;;26.05;7.42;;;;;;;4.75;74.44;98742.00;2210076;80;21491;-65
2021/11/05 05:52:54;;;;;;;22.25;6.83;;;;;;;4.69;74.58;98733.98;2209801;81;21008;-65
2021/11/05 05:55:56;;;;;;;21.87;7.55;;;;;;;4.66;74.61;98735.41;2210220;80;21546;-65
2021/11/05 05:58:57;;;;;;;62.25;21.68;;;;;;;4.67;74.70;98735.81;2210321;81;20972;-65
2021/11/05 06:01:58;;;;;;;24.47;8.55;;;;;;;4.71;74.83;98740.89;2210328;81;20953;-65
2021/11/05 06:05:00;;;;;;;20.88;6.90;;;;;;;4.73;74.53;98747.72;2210331;81;20976;-65
2021/11/05 06:08:01;;;;;;;24.12;7.60;;;;;;;4.75;74.75;98745.91;2210233;81;21076;-65
2021/11/05 06:11:03;;;;;;;23.95;7.75;;;;;;;4.81;74.65;98748.28;2209921;81;21503;-65
2021/11/05 06:14:04;;;;;;;21.42;7.53;;;;;;;4.84;74.62;98741.66;2210316;81;20972;-65
2021/11/05 06:17:06;;;;;;;27.17;9.28;;;;;;;4.92;74.47;98748.31;2210194;81;20992;-65
2021/11/05 06:20:08;;;;;;;24.20;7.73;;;;;;;4.97;74.36;98758.06;2210361;80;21128;-65
2021/11/05 06:23:09;;;;;;;22.20;7.65;;;;;;;5.05;74.13;98752.11;2210177;81;21560;-65
2021/11/05 06:26:10;;;;;;;21.87;7.42;;;;;;;5.09;74.16;98763.25;2210167;81;21058;-65
2021/11/05 06:29:12;;;;;;;21.55;6.95;;;;;;;5.14;74.08;98760.00;2210162;81;21056;-65
2021/11/05 06:32:13;;;;;;;21.42;7.08;;;;;;;5.21;74.03;98757.55;2210147;80;21511;-65
2021/11/05 06:35:15;;;;;;;20.35;7.17;;;;;;;5.25;73.78;98757.82;2210150;81;21032;-65
2021/11/05 06:38:17;;;;;;;21.40;7.00;;;;;;;5.32;73.87;98773.57;2209961;81;21590;-65
2021/11/05 06:41:19;;;;;;;22.35;7.25;;;;;;;5.36;73.21;98778.21;2210315;80;21048;-65
2021/11/05 06:44:20;;;;;;;23.50;7.25;;;;;;;5.44;73.31;98773.98;2210332;81;21570;-65
2021/11/05 06:47:22;;;;;;;22.17;7.65;;;;;;;5.57;73.34;98779.53;2210079;81;21119;-64
2021/11/05 06:50:23;;;;;;;21.90;8.48;;;;;;;5.70;72.93;98778.10;2213985;80;21570;-65
2021/11/05 06:53:25;;;;;;;21.87;8.03;;;;;;;5.83;72.63;98782.34;2220894;80;21028;-65
2021/11/05 06:56:26;;;;;;;22.70;7.85;;;;;;;5.93;72.37;98794.52;2220808;80;21055;-65
2021/11/05 06:59:28;;;;;;;23.30;7.50;;;;;;;6.01;72.24;98795.91;2221082;80;21127;-65
2021/11/05 07:02:29;;;;;;;21.30;6.50;;;;;;;6.08;72.02;98800.41;2220980;80;21060;-65
2021/11/05 07:05:32;;;;;;;22.45;7.37;;;;;;;6.21;71.49;98799.42;2221004;80;21103;-64
2021/11/05 07:08:34;;;;;;;20.77;7.10;;;;;;;6.35;71.37;98804.01;2220969;80;21716;-65
2021/11/05 07:11:36;;;;;;;20.63;6.53;;;;;;;6.43;70.66;98811.04;2220840;80;21468;-65
2021/11/05 07:14:37;;;;;;;18.10;5.67;;;;;;;6.49;70.84;98808.16;2221107;80;20983;-64
2021/11/05 07:17:39;;;;;;;21.75;6.62;;;;;;;6.59;69.96;98813.37;2220944;80;20975;-64
2021/11/05 07:20:40;;;;;;;24.43;7.28;;;;;;;6.68;70.44;98820.36;2221068;80;20995;-64
2021/11/05 07:23:41;;;;;;;25.10;6.60;;;;;;;6.84;70.10;98810.08;2220969;80;21023;-64
2021/11/05 07:26:46;;;;;;;19.98;6.28;;;;;;;6.97;69.50;98816.44;2221250;80;21079;-65
2021/11/05 07:29:46;;;;;;;20.23;6.72;;;;;;;7.03;69.18;98834.41;2192929;80;20999;-65
2021/11/05 07:32:49;;;;;;;25.75;7.15;;;;;;;7.02;69.33;98849.66;2221369;80;20972;-65
2021/11/05 07:35:50;;;;;;;26.62;6.58;;;;;;;7.11;69.00;98841.42;2221230;80;20960;-64
2021/11/05 07:38:52;;;;;;;22.07;6.70;;;;;;;7.18;69.07;98843.73;2221171;80;21004;-64
2021/11/05 07:41:53;;;;;;;22.40;7.08;;;;;;;7.11;68.88;98847.08;2221491;80;20945;-64
2021/11/05 07:44:55;;;;;;;19.62;5.92;;;;;;;7.03;68.89;98864.87;2221125;80;20980;-65
2021/11/05 07:47:56;;;;;;;19.82;6.40;;;;;;;6.98;68.79;98866.83;2221062;80;21032;-64
2021/11/05 07:50:58;;;;;;;21.43;5.83;;;;;;;6.98;68.87;98873.34;2220966;80;20988;-64
2021/11/05 07:53:59;;;;;;;22.87;6.37;;;;;;;6.84;68.74;98871.34;2220749;80;21507;-65
2021/11/05 07:57:01;;;;;;;22.52;6.20;;;;;;;6.91;69.57;98877.98;2220861;80;21099;-65
2021/11/05 08:00:02;;;;;;;20.62;5.85;;;;;;;7.31;69.03;98879.23;2220964;80;21052;-64
2021/11/05 08:03:04;;;;;;;22.67;6.62;;;;;;;7.58;67.85;98883.13;2220865;80;21037;-65
2021/11/05 08:06:05;;;;;;;19.50;6.28;;;;;;;7.68;66.87;98872.27;2220680;80;21072;-65
2021/11/05 08:09:07;;;;;;;21.50;5.83;;;;;;;7.85;67.71;98877.51;2220799;80;21593;-64
2021/11/05 08:12:08;;;;;;;24.27;8.10;;;;;;;7.82;67.30;98895.11;2220503;80;21068;-64
2021/11/05 08:15:10;;;;;;;23.92;7.33;;;;;;;7.70;67.08;98901.74;2220395;80;21520;-64
2021/11/05 08:18:12;;;;;;;24.30;7.47;;;;;;;7.67;67.67;98915.81;2220888;80;21032;-64
2021/11/05 08:21:13;;;;;;;27.15;9.90;;;;;;;7.82;67.93;98906.39;2220527;80;21499;-64
2021/11/05 08:24:14;;;;;;;21.05;6.55;;;;;;;8.26;66.23;98899.44;2220693;80;20976;-64
2021/11/05 08:27:16;;;;;;;23.18;6.55;;;;;;;8.63;66.00;98904.58;2220602;80;21044;-64
2021/11/05 08:30:20;;;;;;;22.22;6.72;;;;;;;8.64;65.78;98912.33;2220500;80;21590;-64
2021/11/05 08:33:21;;;;;;;22.32;6.15;;;;;;;8.67;64.73;98925.25;2190248;80;21039;-64
2021/11/05 08:36:23;;;;;;;21.05;6.17;;;;;;;8.80;64.87;98924.15;2220814;80;20988;-64
2021/11/05 08:39:24;;;;;;;22.30;7.03;;;;;;;8.96;63.95;98930.73;2220975;80;21020;-64
2021/11/05 08:42:26;;;;;;;20.23;5.85;;;;;;;9.16;64.86;98946.68;2220693;80;21020;-64
2021/11/05 08:45:27;;;;;;;19.67;6.15;;;;;;;9.48;64.01;98943.26;2220820;80;21052;-64
2021/11/05 08:48:29;;;;;;;17.77;5.67;;;;;;;9.52;62.91;98940.41;2220660;80;21021;-64
2021/11/05 08:51:31;;;;;;;19.35;6.28;;;;;;;9.42;61.83;98947.53;2214496;80;21626;-65
2021/11/05 08:54:33;;;;;;;18.87;5.65;;;;;;;9.46;64.21;98961.67;2210121;81;21037;-64
2021/11/05 08:57:34;;;;;;;20.80;5.40;;;;;;;9.63;62.10;98974.33;2210592;81;21020;-65
2021/11/05 09:00:36;;;;;;;20.75;6.12;;;;;;;9.66;61.46;98970.23;2210357;81;21071;-64
2021/11/05 09:03:37;;;;;;;19.17;5.42;;;;;;;9.62;62.46;98970.01;2210397;81;21555;-64
2021/11/05 09:06:39;;;;;;;19.25;5.17;;;;;;;9.75;61.16;98966.25;2210379;81;21023;-65
2021/11/05 09:09:41;;;;;;;19.90;5.33;;;;;;;9.62;59.57;98980.01;2210437;80;21543;-65
2021/11/05 09:12:43;;;;;;;17.80;5.37;;;;;;;9.45;59.87;98988.80;2209895;81;21073;-64
2021/11/05 09:15:45;;;;;;;18.57;5.43;;;;;;;9.34;59.84;98978.89;2210125;81;21061;-65
2021/11/05 09:18:46;;;;;;;18.62;5.33;;;;;;;9.48;61.89;98990.39;2210611;81;20972;-64
2021/11/05 09:21:48;;;;;;;20.75;4.80;;;;;;;9.56;61.37;98986.06;2210457;80;20961;-64
2021/11/05 09:24:50;;;;;;;17.60;5.07;;;;;;;9.66;59.64;98986.77;2210518;80;21488;-64
2021/11/05 09:27:52;;;;;;;18.60;4.90;;;;;;;9.96;59.84;98982.56;2210160;80;21103;-65
2021/11/05 09:30:53;;;;;;;17.63;4.93;;;;;;;10.10;60.50;98981.77;2210680;81;21039;-64
2021/11/05 09:33:55;;;;;;;18.15;5.10;;;;;;;10.42;59.73;98983.91;2210465;81;21047;-64
2021/11/05 09:36:57;;;;;;;20.15;5.00;;;;;;;10.54;58.52;98988.45;2210514;80;21003;-64
2021/11/05 09:39:58;;;;;;;19.80;5.15;;;;;;;10.37;57.62;98995.97;2210448;81;20953;-65
2021/11/05 09:43:00;;;;;;;18.47;5.00;;;;;;;10.51;58.27;98995.63;2210490;80;21045;-64
2021/11/05 09:46:02;;;;;;;17.35;5.03;;;;;;;10.93;58.08;99017.65;2210396;80;21099;-64
2021/11/05 09:49:03;;;;;;;16.30;4.70;;;;;;;11.14;56.14;99032.59;2210479;80;21554;-64
2021/11/05 09:52:05;;;;;;;16.87;4.60;;;;;;;10.88;55.40;99005.28;2217275;80;21084;-65
2021/11/05 09:55:06;;;;;;;18.40;4.42;;;;;;;11.02;54.25;99012.31;2220340;80;21602;-65
2021/11/05 09:58:07;;;;;;;16.45;4.47;;;;;;;11.02;55.59;98997.43;2220714;80;21036;-64
2021/11/05 10:01:09;;;;;;;13.58;3.80;;;;;;;10.62;56.19;98993.71;2220491;80;21048;-64
2021/11/05 10:04:10;;;;;;;16.40;4.27;;;;;;;10.25;55.91;98987.93;2220775;80;21063;-64
2021/11/05 10:07:12;;;;;;;13.83;3.90;;;;;;;10.56;56.79;98996.22;2220743;80;21115;-64
2021/11/05 10:10:13;;;;;;;17.13;4.20;;;;;;;10.75;54.43;99007.31;2220794;80;21056;-64
2021/11/05 10:13:22;;;;;;;14.87;4.25;;;;;;;11.02;55.34;99001.37;2220466;80;21076;-64
2021/11/05 10:16:20;;;;;;;13.15;3.45;;;;;;;11.29;55.54;98992.73;2190033;80;21020;-64
2021/11/05 10:19:22;;;;;;;12.10;3.58;;;;;;;11.57;53.47;98998.45;2220416;80;20992;-64
2021/11/05 10:22:23;;;;;;;14.10;3.98;;;;;;;11.50;52.51;99027.35;2220813;80;21130;-65
2021/11/05 10:25:25;;;;;;;16.23;3.95;;;;;;;11.29;54.52;99011.12;2220546;80;21032;-64
2021/11/05 10:28:27;;;;;;;15.73;4.30;;;;;;;11.30;54.49;98999.69;2220782;80;21499;-65
2021/11/05 10:31:30;;;;;;;10.75;3.30;;;;;;;11.26;53.28;99014.80;2220420;80;21084;-64
2021/11/05 10:34:32;;;;;;;12.25;3.10;;;;;;;11.05;53.16;99022.18;2220473;80;21045;-65
2021/11/05 10:37:33;;;;;;;13.08;3.60;;;;;;;10.74;54.28;99025.28;2220389;80;21598;-65
2021/11/05 10:40:35;;;;;;;12.88;3.37;;;;;;;10.67;55.77;98996.89;2220525;80;21039;-65
2021/11/05 10:43:36;;;;;;;9.97;3.00;;;;;;;10.42;55.34;99022.40;2220720;80;21040;-65
2021/11/05 10:46:39;;;;;;;12.07;3.40;;;;;;;10.40;55.40;99021.14;2220753;80;21034;-65
2021/11/05 10:49:43;;;;;;;9.10;2.98;;;;;;;10.38;56.04;99030.41;2189529;80;21028;-65
2021/11/05 10:52:44;;;;;;;10.93;3.08;;;;;;;10.26;54.88;99040.72;2211878;80;21092;-65
2021/11/05 10:55:46;;;;;;;12.05;3.33;;;;;;;10.05;55.76;99035.28;2210185;81;21056;-65
2021/11/05 10:58:47;;;;;;;8.70;2.83;;;;;;;10.03;57.05;99027.98;2210430;80;21535;-65
2021/11/05 11:01:49;;;;;;;14.70;3.75;;;;;;;10.03;56.42;99024.05;2210401;81;21045;-65
2021/11/05 11:04:50;;;;;;;12.93;3.25;;;;;;;10.11;57.04;99024.09;2210142;81;21060;-65
2021/11/05 11:07:51;;;;;;;12.13;3.58;;;;;;;10.13;57.45;99030.08;2210254;81;21041;-65
2021/11/05 11:10:53;;;;;;;12.40;3.40;;;;;;;10.09;56.75;99025.96;2210087;81;21064;-65
2021/11/05 11:13:54;;;;;;;15.47;4.07;;;;;;;10.16;56.93;99036.01;2210544;80;21075;-65
2021/11/05 11:16:56;;;;;;;16.37;4.40;;;;;;;10.32;56.72;99032.05;2210041;81;21135;-65
2021/11/05 11:19:58;;;;;;;14.97;3.80;;;;;;;10.46;56.89;99043.55;2210198;80;21067;-65
2021/11/05 11:23:00;;;;;;;14.80;4.00;;;;;;;10.69;55.68;99039.64;2210453;81;21076;-65
2021/11/05 11:26:02;;;;;;;13.03;3.85;;;;;;;10.73;56.17;99041.98;2210252;80;21103;-65
2021/11/05 11:29:03;;;;;;;13.48;3.72;;;;;;;10.68;56.09;99028.28;2210096;81;21040;-65
2021/11/05 11:32:05;;;;;;;13.62;3.40;;;;;;;10.61;55.14;99031.36;2210083;81;21067;-65
2021/11/05 11:35:06;;;;;;;15.20;4.00;;;;;;;10.45;57.57;99040.09;2210115;81;21040;-65
2021/11/05 11:38:08;;;;;;;12.53;3.50;;;;;;;10.32;56.88;99045.64;2210420;80;21528;-65
2021/11/05 11:41:09;;;;;;;17.77;4.77;;;;;;;10.22;57.81;99059.25;2210391;80;21011;-65
2021/11/05 11:44:11;;;;;;;15.23;3.57;;;;;;;10.21;58.37;99050.16;2210505;80;21523;-65
2021/11/05 11:47:12;;;;;;;12.60;3.42;;;;;;;10.20;57.21;99044.53;2210497;81;21028;-65
2021/11/05 11:50:14;;;;;;;11.80;3.75;;;;;;;10.18;56.59;99045.92;2210405;80;21527;-65
2021/11/05 11:53:17;;;;;;;13.53;3.52;;;;;;;10.11;57.37;99053.75;2210476;81;21020;-65
2021/11/05 11:56:19;;;;;;;17.60;3.90;;;;;;;10.18;57.52;99052.95;2188898;81;20946;-65
2021/11/05 11:59:20;;;;;;;9.93;3.07;;;;;;;10.09;57.68;99056.10;2210705;80;21476;-65
2021/11/05 12:02:21;;;;;;;17.00;4.15;;;;;;;9.98;58.08;99049.65;2210732;81;20993;-65
2021/11/05 12:05:24;;;;;;;12.35;3.33;;;;;;;10.00;58.84;99045.19;2210405;81;21483;-65
2021/11/05 12:08:27;;;;;;;13.72;3.52;;;;;;;10.07;57.72;99053.56;2210442;80;21024;-65
2021/11/05 12:11:29;;;;;;;11.12;3.08;;;;;;;10.04;57.53;99049.34;2210410;81;21023;-65
2021/11/05 12:14:31;;;;;;;12.80;3.50;;;;;;;10.11;57.62;99047.67;2210143;81;21090;-65
2021/11/05 12:17:35;;;;;;;13.38;3.42;;;;;;;10.18;58.58;99045.92;2210268;80;20992;-65
2021/11/05 12:20:37;;;;;;;9.63;2.80;;;;;;;10.27;57.06;99047.22;2188746;81;20985;-65
2021/11/05 12:23:38;;;;;;;9.03;2.62;;;;;;;10.30;56.89;99051.41;2210321;80;20976;-65
2021/11/05 12:26:40;;;;;;;11.57;2.95;;;;;;;10.39;57.42;99053.56;2210294;81;21460;-65
2021/11/05 12:29:41;;;;;;;12.60;3.37;;;;;;;10.37;55.93;99064.15;2210372;80;20996;-65
2021/11/05 12:32:45;;;;;;;13.18;3.47;;;;;;;10.33;57.11;99063.04;2210463;81;21537;-65
2021/11/05 12:35:46;;;;;;;13.58;3.47;;;;;;;10.33;57.78;99066.53;2188748;81;21511;-64
2021/11/05 12:38:48;;;;;;;9.93;3.17;;;;;;;10.35;57.92;99069.09;2210331;81;20980;-65
2021/11/05 12:41:49;;;;;;;11.57;3.05;;;;;;;10.35;57.45;99065.98;2210316;81;21016;-65
2021/11/05 12:47:56;;;;;;;12.20;3.10;;;;;;;10.13;57.40;99074.63;2188914;81;21024;-65
2021/11/05 12:50:57;;;;;;;12.07;2.83;;;;;;;10.03;58.21;99079.09;2189188;80;20977;-65
2021/11/05 12:53:58;;;;;;;12.45;3.08;;;;;;;9.98;59.04;99080.27;2221098;80;21483;-65
2021/11/05 12:57:00;;;;;;;12.20;3.30;;;;;;;9.93;58.91;99076.59;2221351;80;20991;-65
2021/11/05 13:00:03;;;;;;;13.78;2.98;;;;;;;9.92;58.99;99074.05;2221087;80;20991;-65
2021/11/05 13:03:04;;;;;;;15.60;3.95;;;;;;;9.91;59.39;99075.80;2221234;80;20996;-65
2021/11/05 13:06:06;;;;;;;16.87;3.90;;;;;;;9.93;59.54;99077.03;2221368;80;20981;-65
2021/11/05 13:09:08;;;;;;;15.18;3.83;;;;;;;9.96;58.83;99067.72;2220987;80;21115;-65
2021/11/05 13:12:09;;;;;;;19.27;5.15;;;;;;;9.95;59.50;99070.78;2221270;80;21045;-65
2021/11/05 13:15:11;;;;;;;21.10;6.55;;;;;;;9.96;59.01;99068.55;2220793;80;21526;-65
2021/11/05 13:18:13;;;;;;;17.30;4.73;;;;;;;10.04;59.24;99068.98;2220907;80;21091;-65
2021/11/05 13:21:14;;;;;;;21.10;5.80;;;;;;;10.03;58.87;99071.22;2221096;80;21011;-65
2021/11/05 13:24:16;;;;;;;21.05;6.37;;;;;;;10.03;59.84;99075.16;2220845;80;21531;-65
2021/11/05 13:27:17;;;;;;;17.00;4.60;;;;;;;10.03;59.77;99076.94;2220838;80;21067;-65
2021/11/05 13:30:18;;;;;;;19.77;5.30;;;;;;;10.01;59.10;99078.34;2220793;80;21490;-65
2021/11/05 13:33:20;;;;;;;21.48;5.40;;;;;;;9.99;59.40;99081.48;2220959;80;21031;-65
2021/11/05 13:36:21;;;;;;;21.40;5.80;;;;;;;9.99;59.56;99092.45;2220813;80;20964;-65
2021/11/05 13:39:23;;;;;;;23.57;6.55;;;;;;;9.95;59.53;99083.89;2221035;80;20995;-65
2021/11/05 13:42:24;;;;;;;22.73;6.67;;;;;;;9.92;59.78;99093.70;2220884;80;20968;-65
2021/11/05 13:45:27;;;;;;;25.00;5.75;;;;;;;9.87;60.20;99092.17;2220965;80;21531;-65
2021/11/05 13:48:29;;;;;;;19.80;5.33;;;;;;;9.84;60.17;99104.13;2220822;80;21550;-65
2021/11/05 13:51:30;;;;;;;22.07;6.05;;;;;;;9.77;59.51;99109.31;2220848;80;21055;-65
2021/11/05 13:54:32;;;;;;;19.92;5.30;;;;;;;9.71;59.88;99110.93;2220485;80;21069;-65
2021/11/05 13:57:33;;;;;;;21.10;6.10;;;;;;;9.66;60.01;99119.04;2220799;80;21044;-65
2021/11/05 14:00:35;;;;;;;19.52;6.08;;;;;;;9.69;60.73;99122.80;2220633;80;21040;-65
2021/11/05 14:03:36;;;;;;;25.23;7.83;;;;;;;9.69;60.67;99120.19;2220459;80;21516;-65
2021/11/05 14:06:38;;;;;;;21.30;5.40;;;;;;;9.69;61.08;99123.27;2220675;80;21021;-65
2021/11/05 14:09:39;;;;;;;23.95;7.33;;;;;;;9.69;59.95;99124.11;2220412;80;21547;-65
2021/11/05 14:12:42;;;;;;;25.50;7.87;;;;;;;9.67;60.67;99128.59;2220677;80;21112;-65
2021/11/05 14:15:44;;;;;;;22.25;6.37;;;;;;;9.65;60.78;99138.77;2220613;80;21029;-65